This is the latest recevied weather packets stored in our database for station/object WX2NJ. If no packets are shown the sender has not sent any weather packets the latest 10 day(s).
| Time | Temp. | Humidity | Pressure | Rain* | Wind** | Luminosity | Snow |
|---|---|---|---|---|---|---|---|
| 1777834681 | 16.11° C | 30% | 1015.6 hPa | 0 mm | - | 99 W/m² | - |
| 1777834376 | 15.56° C | 32% | 1015.7 hPa | 0 mm | - | 730 W/m² | - |
| 1777834075 | 15° C | 31% | 1015.7 hPa | 0 mm | - | 833 W/m² | - |
| 1777833773 | 15° C | 33% | 1015.8 hPa | 0 mm | - | 825 W/m² | - |
| 1777833468 | 16.11° C | 32% | 1015.7 hPa | 0 mm | - | 499 W/m² | - |
| 1777833166 | 16.11° C | 30% | 1015.7 hPa | 0 mm | - | 741 W/m² | - |
| 1777832864 | 15.56° C | 32% | 1015.9 hPa | 0 mm | - | 905 W/m² | - |
| 1777832563 | 14.44° C | 32% | 1016 hPa | 0 mm | - | 212 W/m² | - |
| 1777832259 | 13.89° C | 33% | 1015.8 hPa | 0 mm | - | 750 W/m² | - |
| 1777831956 | 15.56° C | 29% | 1015.7 hPa | 0 mm | - | 856 W/m² | - |
| 1777831652 | 14.44° C | 32% | 1016.1 hPa | 0 mm | - | 798 W/m² | - |
| 1777831351 | 14.44° C | 32% | 1016 hPa | 0 mm | - | 243 W/m² | - |
| 1777831047 | 13.89° C | 33% | 1016 hPa | 0 mm | - | 340 W/m² | - |
| 1777830745 | 13.89° C | 37% | 1016 hPa | 0 mm | - | 204 W/m² | - |
| 1777830441 | 13.33° C | 36% | 1016 hPa | 0 mm | - | 245 W/m² | - |
| 1777830139 | 13.33° C | 34% | 1015.9 hPa | 0 mm | - | 294 W/m² | - |
| 1777829834 | 12.78° C | 36% | 1016.1 hPa | 0 mm | - | 177 W/m² | - |
| 1777829530 | 13.89° C | 33% | 1016 hPa | 0 mm | - | 159 W/m² | - |
| 1777829227 | 14.44° C | 34% | 1016.2 hPa | 0 mm | - | 918 W/m² | - |
| 1777828924 | 15° C | 33% | 1015.6 hPa | 0 mm | - | 228 W/m² | - |
| 1777828620 | 14.44° C | 35% | 1015.8 hPa | 0 mm | - | 747 W/m² | - |
| 1777828318 | 13.89° C | 34% | 1016 hPa | 0 mm | - | 164 W/m² | - |
| 1777828014 | 14.44° C | 34% | 1016 hPa | 0 mm | - | 718 W/m² | - |
| 1777827711 | 14.44° C | 34% | 1016 hPa | 0 mm | - | 696 W/m² | - |
| 1777827408 | 13.89° C | 35% | 1015.8 hPa | 0 mm | - | 658 W/m² | - |
* Rain latest hour (hover to see other rain measurements)
** Current wind speed in m/s (hover to see current wind gust speed)